createdAt,value
2018-12-30T00:00:22.417Z,406.29
2018-12-30T00:01:22.453Z,406.08
2018-12-30T00:02:22.388Z,405.42
2018-12-30T00:03:22.410Z,406.01
2018-12-30T00:04:22.372Z,405.27
2018-12-30T00:05:22.365Z,404.95
2018-12-30T00:06:22.359Z,405.01
2018-12-30T00:07:22.340Z,404.52
2018-12-30T00:08:22.349Z,406.69
2018-12-30T00:09:22.325Z,406.11
2018-12-30T00:10:22.331Z,406.01
2018-12-30T00:11:22.299Z,405.64
2018-12-30T00:12:22.277Z,407.87
2018-12-30T00:13:22.287Z,406.20
2018-12-30T00:14:22.264Z,406.19
2018-12-30T00:15:22.266Z,405.47
2018-12-30T00:16:22.259Z,405.48
2018-12-30T00:17:22.237Z,405.63
2018-12-30T00:18:22.253Z,406.20
2018-12-30T00:19:22.215Z,405.09
2018-12-30T00:20:22.217Z,405.66
2018-12-30T00:21:22.189Z,405.91
2018-12-30T00:22:22.188Z,406.02
2018-12-30T00:23:22.186Z,404.86
2018-12-30T00:24:22.150Z,405.79
2018-12-30T00:25:22.149Z,406.46
2018-12-30T00:26:22.128Z,407.37
2018-12-30T00:27:22.154Z,405.44
2018-12-30T00:28:22.135Z,405.37
2018-12-30T00:29:22.117Z,405.85
2018-12-30T00:30:22.092Z,405.84
2018-12-30T00:31:22.073Z,405.50
2018-12-30T00:32:22.063Z,404.82
2018-12-30T00:33:22.083Z,405.22
2018-12-30T00:34:22.045Z,407.23
2018-12-30T00:35:22.030Z,405.33
2018-12-30T00:36:22.022Z,406.35
2018-12-30T00:37:22.006Z,406.58
2018-12-30T00:38:22.030Z,405.94
2018-12-30T00:39:21.995Z,405.04
2018-12-30T00:40:21.985Z,405.86
2018-12-30T00:41:21.972Z,405.52
2018-12-30T00:42:21.974Z,405.45
2018-12-30T00:43:21.939Z,404.76
2018-12-30T00:44:21.954Z,406.15
2018-12-30T00:45:21.922Z,404.92
2018-12-30T00:46:21.916Z,406.02
2018-12-30T00:47:21.905Z,405.35
2018-12-30T00:48:21.910Z,405.89
2018-12-30T00:49:21.900Z,405.97
2018-12-30T00:50:21.859Z,405.42
2018-12-30T00:51:21.864Z,407.21
2018-12-30T00:52:21.853Z,405.62
2018-12-30T00:53:21.845Z,404.23
2018-12-30T00:54:21.853Z,405.87
2018-12-30T00:55:21.816Z,406.12
2018-12-30T00:56:21.807Z,405.91
2018-12-30T00:57:21.788Z,406.85
2018-12-30T00:58:21.780Z,405.79
2018-12-30T00:59:21.805Z,407.16
2018-12-30T01:00:21.765Z,405.42
2018-12-30T01:01:21.756Z,406.64
2018-12-30T01:02:21.741Z,405.36
2018-12-30T01:03:21.753Z,405.43
2018-12-30T01:04:21.716Z,406.03
2018-12-30T01:05:21.743Z,407.51
2018-12-30T01:06:21.706Z,405.15
2018-12-30T01:07:21.690Z,404.98
2018-12-30T01:08:21.670Z,406.23
2018-12-30T01:09:21.692Z,407.43
2018-12-30T01:10:21.651Z,405.02
2018-12-30T01:11:21.648Z,405.95
2018-12-30T01:12:21.630Z,405.67
2018-12-30T01:13:21.624Z,405.33
2018-12-30T01:14:21.611Z,406.48
2018-12-30T01:15:21.619Z,406.04
2018-12-30T01:16:21.578Z,405.68
2018-12-30T01:17:21.576Z,405.84
2018-12-30T01:18:21.560Z,406.28
2018-12-30T01:19:21.564Z,406.54
2018-12-30T01:20:21.559Z,406.93
2018-12-30T01:21:25.113Z,405.51
2018-12-30T01:22:21.513Z,405.58
2018-12-30T01:23:21.520Z,406.01
2018-12-30T01:24:21.503Z,406.05
2018-12-30T01:25:21.522Z,405.21
2018-12-30T01:26:21.479Z,406.50
2018-12-30T01:27:21.461Z,406.81
2018-12-30T01:28:21.454Z,406.44
2018-12-30T01:29:21.533Z,406.55
2018-12-30T01:30:21.436Z,407.32
2018-12-30T01:31:21.449Z,406.51
2018-12-30T01:32:21.425Z,406.43
2018-12-30T01:33:21.412Z,406.84
2018-12-30T01:34:21.396Z,406.65
2018-12-30T01:35:21.381Z,406.76
2018-12-30T01:36:21.396Z,406.51
2018-12-30T01:37:21.370Z,407.10
2018-12-30T01:38:21.352Z,406.51
2018-12-30T01:39:21.335Z,405.82
2018-12-30T01:40:21.341Z,406.51
2018-12-30T01:41:21.309Z,406.19
2018-12-30T01:42:21.324Z,406.22
2018-12-30T01:43:21.318Z,406.31
2018-12-30T01:44:21.288Z,407.66
2018-12-30T01:45:21.311Z,406.30
2018-12-30T01:46:21.264Z,406.27
2018-12-30T01:47:21.239Z,406.78
2018-12-30T01:48:21.246Z,406.49
2018-12-30T01:49:21.223Z,406.83
2018-12-30T01:50:21.208Z,407.47
2018-12-30T01:51:21.224Z,407.04
2018-12-30T01:52:21.195Z,407.04
2018-12-30T01:53:21.171Z,407.48
2018-12-30T01:54:21.164Z,406.71
2018-12-30T01:55:21.160Z,405.75
2018-12-30T01:56:21.167Z,406.83
2018-12-30T01:57:21.139Z,406.11
2018-12-30T01:58:21.171Z,406.83
2018-12-30T01:59:21.111Z,407.20
2018-12-30T02:00:21.110Z,407.25
2018-12-30T02:01:21.122Z,408.25
2018-12-30T02:02:22.037Z,407.32
2018-12-30T02:03:21.112Z,407.27
2018-12-30T02:04:21.068Z,406.07
2018-12-30T02:05:21.075Z,406.98
2018-12-30T02:06:21.042Z,406.92
2018-12-30T02:07:21.033Z,406.29
2018-12-30T02:08:21.019Z,407.51
2018-12-30T02:09:21.368Z,406.52
2018-12-30T02:10:20.999Z,407.70
2018-12-30T02:11:20.972Z,406.87
2018-12-30T02:12:20.983Z,406.00
2018-12-30T02:13:20.955Z,406.61
2018-12-30T02:14:20.963Z,407.24
2018-12-30T02:15:20.947Z,406.94
2018-12-30T02:16:20.929Z,407.31
2018-12-30T02:17:20.917Z,407.92
2018-12-30T02:18:20.919Z,408.22
2018-12-30T02:19:20.921Z,406.26
2018-12-30T02:20:20.881Z,406.59
2018-12-30T02:21:20.865Z,406.23
2018-12-30T02:22:20.865Z,407.19
2018-12-30T02:23:20.857Z,408.38
2018-12-30T02:24:20.850Z,407.49
2018-12-30T02:25:20.841Z,406.78
2018-12-30T02:26:20.843Z,407.33
2018-12-30T02:27:20.812Z,408.12
2018-12-30T02:28:20.802Z,407.55
2018-12-30T02:29:20.841Z,407.52
2018-12-30T02:30:20.783Z,406.82
2018-12-30T02:31:20.765Z,407.62
2018-12-30T02:32:20.748Z,407.21
2018-12-30T02:33:20.772Z,407.07
2018-12-30T02:34:21.071Z,407.29
2018-12-30T02:35:20.740Z,407.80
2018-12-30T02:36:20.713Z,408.83
2018-12-30T02:37:20.720Z,408.38
2018-12-30T02:38:20.699Z,407.79
2018-12-30T02:39:20.724Z,407.47
2018-12-30T02:40:20.687Z,406.97
2018-12-30T02:41:20.661Z,407.27
2018-12-30T02:42:20.646Z,407.00
2018-12-30T02:43:20.633Z,406.40
2018-12-30T02:44:20.635Z,407.75
2018-12-30T02:45:20.599Z,406.77
2018-12-30T02:46:20.667Z,408.28
2018-12-30T02:47:20.592Z,407.30
2018-12-30T02:48:20.587Z,407.96
2018-12-30T02:49:20.574Z,407.70
2018-12-30T02:50:20.580Z,407.10
2018-12-30T02:51:20.545Z,405.59
2018-12-30T02:52:20.533Z,407.03
2018-12-30T02:53:20.536Z,406.54
2018-12-30T02:54:20.514Z,406.83
2018-12-30T02:55:20.523Z,407.96
2018-12-30T02:56:20.495Z,407.46
2018-12-30T02:57:20.470Z,406.20
2018-12-30T02:58:20.473Z,407.82
2018-12-30T02:59:20.458Z,408.03
2018-12-30T03:00:20.465Z,406.87
2018-12-30T03:01:20.444Z,407.11
2018-12-30T03:02:20.428Z,407.21
2018-12-30T03:03:20.415Z,407.75
2018-12-30T03:04:20.404Z,407.41
2018-12-30T03:05:20.410Z,405.68
2018-12-30T03:06:20.390Z,406.83
2018-12-30T03:07:20.375Z,406.67
2018-12-30T03:08:20.360Z,407.18
2018-12-30T03:09:20.351Z,406.52
2018-12-30T03:10:20.367Z,407.95
2018-12-30T03:11:20.339Z,407.56
2018-12-30T03:12:20.360Z,408.00
2018-12-30T03:13:20.310Z,407.58
2018-12-30T03:14:20.311Z,406.66
2018-12-30T03:15:20.273Z,406.21
2018-12-30T03:16:20.291Z,407.97
2018-12-30T03:17:20.267Z,407.28
2018-12-30T03:18:20.243Z,406.98
2018-12-30T03:19:20.246Z,407.95
2018-12-30T03:20:20.228Z,407.11
2018-12-30T03:21:20.264Z,407.13
2018-12-30T03:22:20.210Z,407.37
2018-12-30T03:23:20.191Z,407.24
2018-12-30T03:24:20.175Z,407.00
2018-12-30T03:25:20.163Z,407.22
2018-12-30T03:26:20.153Z,409.53
2018-12-30T03:27:20.176Z,409.33
2018-12-30T03:28:20.143Z,407.53
2018-12-30T03:29:20.123Z,408.26
2018-12-30T03:30:20.164Z,407.77
2018-12-30T03:31:20.119Z,407.89
2018-12-30T03:32:20.136Z,408.04
2018-12-30T03:33:20.099Z,407.49
2018-12-30T03:34:20.081Z,410.10
2018-12-30T03:35:20.070Z,407.84
2018-12-30T03:36:20.055Z,407.51
2018-12-30T03:37:20.030Z,408.24
2018-12-30T03:38:20.077Z,407.59
2018-12-30T03:39:20.122Z,408.01
2018-12-30T03:40:20.012Z,408.67
2018-12-30T03:41:19.994Z,408.01
2018-12-30T03:42:20.387Z,408.26
2018-12-30T03:43:19.987Z,408.00
2018-12-30T03:44:19.953Z,406.37
2018-12-30T03:45:19.962Z,408.55
2018-12-30T03:46:19.943Z,407.13
2018-12-30T03:47:19.921Z,408.18
2018-12-30T03:48:19.930Z,409.02
2018-12-30T03:49:19.896Z,408.75
2018-12-30T03:50:19.886Z,407.30
2018-12-30T03:51:19.887Z,409.08
2018-12-30T03:52:19.885Z,408.40
2018-12-30T03:53:19.893Z,408.30
2018-12-30T03:54:19.857Z,408.42
2018-12-30T03:55:19.838Z,409.01
2018-12-30T03:56:19.825Z,408.27
2018-12-30T03:57:19.807Z,409.28
2018-12-30T03:58:19.798Z,410.83
2018-12-30T03:59:19.822Z,407.66
2018-12-30T04:00:19.785Z,408.04
2018-12-30T04:01:19.771Z,409.09
2018-12-30T04:02:19.759Z,407.12
2018-12-30T04:03:19.759Z,407.40
2018-12-30T04:04:19.779Z,407.56
2018-12-30T04:05:19.743Z,409.91
2018-12-30T04:06:19.719Z,410.29
2018-12-30T04:07:19.720Z,410.64
2018-12-30T04:08:19.689Z,409.53
2018-12-30T04:09:19.678Z,409.77
2018-12-30T04:10:19.706Z,409.88
2018-12-30T04:11:19.672Z,408.93
2018-12-30T04:12:19.656Z,410.25
2018-12-30T04:13:19.665Z,408.73
2018-12-30T04:14:19.636Z,407.62
2018-12-30T04:15:19.631Z,409.45
2018-12-30T04:16:19.615Z,410.13
2018-12-30T04:17:19.607Z,408.72
2018-12-30T04:18:19.589Z,407.40
2018-12-30T04:19:19.569Z,407.49
2018-12-30T04:20:19.580Z,406.80
2018-12-30T04:21:19.544Z,407.98
2018-12-30T04:22:19.542Z,408.06
2018-12-30T04:23:19.529Z,409.06
2018-12-30T04:24:19.529Z,406.63
2018-12-30T04:25:19.524Z,408.43
2018-12-30T04:26:19.502Z,408.76
2018-12-30T04:27:19.483Z,409.39
2018-12-30T04:28:19.472Z,408.54
2018-12-30T04:29:19.456Z,408.17
2018-12-30T04:30:19.489Z,408.39
2018-12-30T04:31:19.444Z,410.05
2018-12-30T04:32:19.440Z,407.89
2018-12-30T04:33:19.418Z,408.03
2018-12-30T04:34:19.409Z,409.43
2018-12-30T04:35:19.432Z,409.47
2018-12-30T04:36:19.401Z,407.60
2018-12-30T04:37:19.373Z,408.63
2018-12-30T04:38:19.379Z,408.17
2018-12-30T04:39:19.348Z,408.53
2018-12-30T04:40:19.328Z,408.52
2018-12-30T04:41:19.341Z,409.34
2018-12-30T04:42:19.314Z,408.45
2018-12-30T04:43:19.699Z,408.15
2018-12-30T04:44:19.295Z,407.67
2018-12-30T04:45:19.287Z,408.83
2018-12-30T04:46:19.284Z,407.21
2018-12-30T04:47:19.259Z,409.80
2018-12-30T04:48:19.268Z,408.36
2018-12-30T04:49:19.253Z,409.12
2018-12-30T04:50:19.248Z,409.56
2018-12-30T04:51:19.228Z,407.91
2018-12-30T04:52:25.625Z,408.13
2018-12-30T04:53:20.217Z,408.90
2018-12-30T04:54:19.185Z,408.70
2018-12-30T04:55:19.185Z,409.07
2018-12-30T04:56:19.167Z,409.25
2018-12-30T04:57:19.163Z,407.22
2018-12-30T04:58:19.171Z,409.92
2018-12-30T04:59:19.125Z,410.78
2018-12-30T05:00:19.120Z,409.96
2018-12-30T05:01:19.119Z,407.27
2018-12-30T05:02:19.093Z,408.27
2018-12-30T05:03:19.120Z,408.19
2018-12-30T05:04:19.074Z,407.85
2018-12-30T05:05:19.063Z,408.67
2018-12-30T05:06:19.055Z,407.57
2018-12-30T05:07:19.057Z,408.26
2018-12-30T05:08:19.035Z,409.34
2018-12-30T05:09:19.044Z,408.22
2018-12-30T05:10:19.022Z,409.08
2018-12-30T05:11:18.995Z,407.20
2018-12-30T05:12:18.986Z,408.74
2018-12-30T05:13:18.981Z,408.53
2018-12-30T05:14:18.988Z,408.00
2018-12-30T05:15:18.956Z,408.11
2018-12-30T05:16:18.950Z,407.40
2018-12-30T05:17:18.941Z,407.97
2018-12-30T05:18:18.929Z,409.54
2018-12-30T05:19:18.924Z,408.80
2018-12-30T05:20:18.895Z,406.93
2018-12-30T05:21:18.907Z,407.75
2018-12-30T05:22:18.877Z,407.54
2018-12-30T05:23:18.868Z,407.13
2018-12-30T05:24:18.882Z,409.27
2018-12-30T05:25:18.840Z,408.88
2018-12-30T05:26:18.830Z,407.51
2018-12-30T05:27:18.830Z,408.22
2018-12-30T05:28:18.819Z,408.27
2018-12-30T05:29:18.799Z,408.28
2018-12-30T05:30:18.818Z,408.66
2018-12-30T05:31:18.780Z,407.62
2018-12-30T05:32:18.769Z,408.34
2018-12-30T05:33:18.758Z,407.24
2018-12-30T05:34:18.744Z,408.37
2018-12-30T05:35:19.515Z,408.46
2018-12-30T05:36:18.728Z,408.04
2018-12-30T05:37:18.711Z,406.98
2018-12-30T05:38:18.695Z,408.10
2018-12-30T05:39:18.700Z,407.11
2018-12-30T05:40:18.700Z,406.77
2018-12-30T05:41:18.698Z,407.35
2018-12-30T05:42:18.669Z,407.29
2018-12-30T05:43:18.648Z,407.60
2018-12-30T05:44:18.643Z,409.03
2018-12-30T05:45:18.624Z,408.51
2018-12-30T05:46:18.628Z,408.45
2018-12-30T05:47:18.607Z,408.85
2018-12-30T05:48:18.595Z,407.40
2018-12-30T05:49:18.583Z,407.87
2018-12-30T05:50:18.569Z,406.12
2018-12-30T05:51:18.593Z,407.94
2018-12-30T05:52:18.538Z,407.26
2018-12-30T05:53:18.544Z,408.61
2018-12-30T05:54:18.542Z,407.72
2018-12-30T05:55:18.511Z,408.04
2018-12-30T05:56:18.513Z,408.47
2018-12-30T05:57:18.488Z,407.93
2018-12-30T05:58:18.474Z,407.53
2018-12-30T05:59:18.474Z,408.09
2018-12-30T06:00:18.463Z,409.51
2018-12-30T06:01:18.468Z,407.64
2018-12-30T06:02:18.435Z,408.90
2018-12-30T06:03:18.442Z,409.11
2018-12-30T06:04:18.407Z,407.57
2018-12-30T06:05:18.404Z,408.13
2018-12-30T06:06:18.390Z,407.51
2018-12-30T06:07:18.478Z,408.64
2018-12-30T06:08:18.398Z,408.21
2018-12-30T06:09:18.350Z,408.49
2018-12-30T06:10:18.348Z,409.11
2018-12-30T06:11:18.347Z,409.43
2018-12-30T06:12:18.334Z,409.13
2018-12-30T06:13:18.334Z,408.76
2018-12-30T06:14:18.304Z,408.92
2018-12-30T06:15:18.281Z,408.18
2018-12-30T06:16:18.289Z,410.70
2018-12-30T06:17:18.259Z,407.19
2018-12-30T06:18:18.274Z,409.02
2018-12-30T06:19:18.289Z,409.67
2018-12-30T06:20:18.235Z,409.47
2018-12-30T06:21:18.226Z,407.94
2018-12-30T06:22:18.216Z,410.17
2018-12-30T06:23:18.198Z,407.77
2018-12-30T06:24:18.210Z,409.16
2018-12-30T06:25:18.179Z,407.90
2018-12-30T06:26:18.176Z,410.11
2018-12-30T06:27:18.150Z,409.14
2018-12-30T06:28:18.149Z,408.78
2018-12-30T06:29:18.142Z,409.80
2018-12-30T06:30:18.149Z,408.61
2018-12-30T06:31:18.139Z,409.74
2018-12-30T06:32:18.115Z,409.75
2018-12-30T06:33:18.098Z,409.45
2018-12-30T06:34:18.095Z,409.26
2018-12-30T06:35:18.098Z,409.00
2018-12-30T06:36:18.081Z,412.22
2018-12-30T06:37:18.047Z,409.06
2018-12-30T06:38:18.033Z,410.45
2018-12-30T06:39:18.022Z,409.51
2018-12-30T06:40:18.017Z,408.73
2018-12-30T06:41:18.040Z,408.27
2018-12-30T06:42:18.009Z,410.61
2018-12-30T06:43:17.986Z,410.64
2018-12-30T06:44:17.974Z,409.04
2018-12-30T06:45:17.967Z,410.31
2018-12-30T06:46:17.979Z,408.08
2018-12-30T06:47:17.936Z,407.99
2018-12-30T06:48:17.929Z,408.68
2018-12-30T06:49:17.918Z,409.02
2018-12-30T06:50:17.905Z,408.88
2018-12-30T06:51:17.905Z,408.79
2018-12-30T06:52:17.918Z,409.50
2018-12-30T06:53:17.879Z,410.10
2018-12-30T06:54:17.876Z,409.30
2018-12-30T06:55:17.845Z,410.73
2018-12-30T06:56:17.840Z,410.34
2018-12-30T06:57:17.848Z,410.01
2018-12-30T06:58:17.821Z,410.60
2018-12-30T06:59:17.805Z,410.42
2018-12-30T07:00:17.796Z,408.98
2018-12-30T07:01:17.784Z,409.33
2018-12-30T07:02:17.797Z,409.74
2018-12-30T07:03:17.785Z,410.45
2018-12-30T07:04:17.761Z,409.52
2018-12-30T07:05:17.748Z,409.53
2018-12-30T07:06:17.733Z,410.26
2018-12-30T07:07:17.711Z,409.45
2018-12-30T07:08:17.718Z,409.88
2018-12-30T07:09:17.687Z,408.83
2018-12-30T07:10:17.682Z,408.20
2018-12-30T07:11:17.681Z,410.34
2018-12-30T07:12:17.697Z,409.50
2018-12-30T07:13:17.657Z,408.32
2018-12-30T07:14:17.644Z,412.49
2018-12-30T07:15:17.637Z,409.90
2018-12-30T07:16:17.628Z,409.40
2018-12-30T07:17:17.645Z,410.51
2018-12-30T07:18:17.656Z,410.75
2018-12-30T07:19:17.583Z,410.73
2018-12-30T07:20:17.573Z,408.20
2018-12-30T07:21:17.559Z,410.32
2018-12-30T07:22:17.570Z,410.59
2018-12-30T07:23:17.546Z,410.43
2018-12-30T07:24:17.536Z,409.03
2018-12-30T07:25:17.529Z,410.29
2018-12-30T07:26:17.522Z,408.83
2018-12-30T07:27:18.441Z,409.55
2018-12-30T07:28:17.481Z,409.84
2018-12-30T07:29:17.485Z,409.27
2018-12-30T07:30:17.478Z,410.35
2018-12-30T07:31:17.454Z,409.19
2018-12-30T07:32:17.463Z,409.41
2018-12-30T07:33:17.462Z,409.95
2018-12-30T07:34:17.423Z,411.56
2018-12-30T07:35:17.424Z,411.62
2018-12-30T07:36:17.413Z,411.15
2018-12-30T07:37:17.399Z,410.94
2018-12-30T07:38:17.407Z,410.76
2018-12-30T07:39:17.372Z,409.63
2018-12-30T07:40:17.355Z,409.13
2018-12-30T07:41:17.354Z,409.98
2018-12-30T07:42:17.359Z,409.73
2018-12-30T07:43:17.329Z,409.34
2018-12-30T07:44:17.343Z,409.69
2018-12-30T07:45:17.406Z,407.78
2018-12-30T07:46:17.297Z,409.31
2018-12-30T07:47:17.587Z,408.85
2018-12-30T07:48:17.283Z,411.02
2018-12-30T07:49:17.280Z,409.97
2018-12-30T07:50:17.260Z,409.04
2018-12-30T07:51:17.239Z,409.46
2018-12-30T07:52:17.243Z,410.25
2018-12-30T07:53:17.217Z,408.95
2018-12-30T07:54:17.227Z,409.57
2018-12-30T07:55:17.210Z,410.72
2018-12-30T07:56:17.191Z,412.65
2018-12-30T07:57:17.185Z,409.85
2018-12-30T07:58:17.205Z,409.13
2018-12-30T07:59:17.151Z,410.80
2018-12-30T08:00:17.146Z,408.80
2018-12-30T08:01:17.143Z,410.14
2018-12-30T08:02:17.125Z,409.25
2018-12-30T08:03:17.103Z,408.60
2018-12-30T08:04:17.106Z,410.49
2018-12-30T08:05:17.086Z,411.01
2018-12-30T08:06:17.076Z,411.06
2018-12-30T08:07:17.081Z,409.80
2018-12-30T08:08:17.060Z,409.62
2018-12-30T08:09:17.081Z,409.35
2018-12-30T08:10:17.040Z,410.49
2018-12-30T08:11:17.020Z,410.69
2018-12-30T08:12:17.006Z,409.60
2018-12-30T08:13:16.993Z,411.25
2018-12-30T08:14:17.000Z,409.85
2018-12-30T08:15:17.000Z,409.42
2018-12-30T08:16:16.969Z,408.49
2018-12-30T08:17:16.951Z,410.01
2018-12-30T08:18:16.941Z,411.19
2018-12-30T08:19:16.935Z,409.88
2018-12-30T08:20:16.947Z,412.21
2018-12-30T08:21:16.921Z,410.34
2018-12-30T08:22:16.914Z,409.71
2018-12-30T08:23:21.393Z,409.88
2018-12-30T08:24:17.883Z,409.03
2018-12-30T08:25:16.891Z,409.63
2018-12-30T08:26:16.858Z,408.92
2018-12-30T08:27:16.891Z,409.53
2018-12-30T08:28:24.806Z,410.87
2018-12-30T08:29:17.834Z,409.08
2018-12-30T08:30:16.851Z,409.09
2018-12-30T08:31:16.802Z,409.98
2018-12-30T08:32:16.796Z,410.82
2018-12-30T08:33:16.790Z,409.75
2018-12-30T08:34:16.776Z,410.10
2018-12-30T08:35:16.760Z,410.77
2018-12-30T08:36:16.769Z,410.06
2018-12-30T08:37:16.739Z,410.30
2018-12-30T08:38:16.723Z,412.07
2018-12-30T08:39:16.734Z,409.79
2018-12-30T08:40:16.733Z,409.19
2018-12-30T08:41:16.699Z,409.85
2018-12-30T08:42:16.686Z,409.69
2018-12-30T08:43:17.350Z,409.70
2018-12-30T08:44:16.669Z,410.00
2018-12-30T08:45:16.685Z,409.80
2018-12-30T08:46:16.652Z,409.47
2018-12-30T08:47:16.626Z,409.57
2018-12-30T08:48:16.619Z,410.11
2018-12-30T08:49:16.616Z,409.63
2018-12-30T08:50:16.642Z,411.05
2018-12-30T08:51:16.575Z,410.82
2018-12-30T08:52:16.570Z,410.35
2018-12-30T08:53:16.561Z,409.76
2018-12-30T08:54:16.547Z,410.31
2018-12-30T08:55:16.555Z,410.96
2018-12-30T08:56:16.552Z,411.10
2018-12-30T08:57:16.530Z,410.55
2018-12-30T08:58:16.530Z,409.01
2018-12-30T08:59:16.502Z,409.14
2018-12-30T09:00:16.482Z,412.63
2018-12-30T09:01:16.495Z,410.43
2018-12-30T09:02:16.462Z,410.73
2018-12-30T09:03:16.464Z,411.10
2018-12-30T09:04:16.474Z,410.70
2018-12-30T09:05:16.439Z,410.67
2018-12-30T09:06:16.419Z,410.76
2018-12-30T09:07:16.426Z,410.29
2018-12-30T09:08:16.403Z,409.70
2018-12-30T09:09:16.403Z,410.37
2018-12-30T09:10:16.406Z,410.32
2018-12-30T09:11:16.359Z,413.01
2018-12-30T09:12:16.358Z,412.58
2018-12-30T09:13:16.362Z,409.97
2018-12-30T09:14:16.334Z,410.25
2018-12-30T09:15:16.351Z,409.74
2018-12-30T09:16:16.354Z,411.15
2018-12-30T09:17:16.313Z,409.78
2018-12-30T09:18:16.308Z,410.57
2018-12-30T09:19:16.289Z,409.28
2018-12-30T09:20:16.283Z,410.41
2018-12-30T09:21:16.271Z,411.19
2018-12-30T09:22:16.282Z,411.26
2018-12-30T09:23:16.240Z,411.06
2018-12-30T09:24:16.231Z,411.15
2018-12-30T09:25:16.213Z,410.75
2018-12-30T09:26:16.204Z,410.27
2018-12-30T09:27:16.224Z,411.54
2018-12-30T09:28:16.197Z,412.28
2018-12-30T09:29:16.179Z,410.70
2018-12-30T09:30:16.178Z,410.11
2018-12-30T09:31:16.157Z,410.45
2018-12-30T09:32:16.177Z,410.51
2018-12-30T09:33:16.138Z,410.82
2018-12-30T09:34:16.117Z,415.45
2018-12-30T09:35:16.131Z,411.01
2018-12-30T09:36:16.110Z,411.10
2018-12-30T09:37:16.117Z,410.60
2018-12-30T09:38:16.077Z,410.98
2018-12-30T09:39:16.071Z,410.80
2018-12-30T09:40:16.102Z,410.67
2018-12-30T09:41:16.045Z,410.28
2018-12-30T09:42:16.042Z,410.32
2018-12-30T09:43:16.032Z,411.52
2018-12-30T09:44:16.010Z,412.10
2018-12-30T09:45:16.001Z,410.56
2018-12-30T09:46:15.991Z,410.85
2018-12-30T09:47:15.981Z,411.21
2018-12-30T09:48:15.988Z,410.62
2018-12-30T09:49:15.991Z,410.66
2018-12-30T09:50:15.970Z,410.32
2018-12-30T09:51:15.933Z,410.19
2018-12-30T09:52:15.926Z,411.00
2018-12-30T09:53:15.921Z,410.17
2018-12-30T09:54:15.908Z,410.59
2018-12-30T09:55:15.903Z,414.58
2018-12-30T09:56:15.872Z,411.50
2018-12-30T09:57:15.864Z,410.99
2018-12-30T09:58:15.882Z,410.16
2018-12-30T09:59:15.859Z,411.27
2018-12-30T10:00:15.865Z,410.55
2018-12-30T10:01:15.852Z,410.62
2018-12-30T10:02:15.824Z,410.37
2018-12-30T10:03:15.814Z,411.11
2018-12-30T10:04:15.820Z,410.81
2018-12-30T10:05:15.802Z,411.79
2018-12-30T10:06:15.772Z,409.97
2018-12-30T10:07:15.765Z,410.80
2018-12-30T10:08:15.764Z,410.91
2018-12-30T10:09:15.743Z,410.08
2018-12-30T10:10:15.747Z,410.97
2018-12-30T10:11:15.736Z,410.35
2018-12-30T10:12:15.712Z,410.31
2018-12-30T10:13:15.703Z,410.70
2018-12-30T10:14:15.697Z,412.58
2018-12-30T10:15:15.670Z,410.69
2018-12-30T10:16:15.670Z,411.51
2018-12-30T10:17:15.648Z,411.74
2018-12-30T10:18:15.632Z,412.69
2018-12-30T10:19:15.636Z,410.51
2018-12-30T10:20:15.615Z,411.94
2018-12-30T10:21:15.630Z,408.80
2018-12-30T10:22:15.599Z,411.19
2018-12-30T10:23:15.595Z,411.26
2018-12-30T10:24:15.566Z,411.02
2018-12-30T10:25:15.568Z,411.06
2018-12-30T10:26:15.582Z,410.72
2018-12-30T10:27:15.535Z,411.17
2018-12-30T10:28:15.540Z,410.07
2018-12-30T10:29:15.518Z,410.92
2018-12-30T10:30:15.500Z,412.15
2018-12-30T10:31:15.518Z,411.43
2018-12-30T10:32:15.490Z,410.30
2018-12-30T10:33:15.482Z,419.90
2018-12-30T10:34:15.478Z,411.65
2018-12-30T10:35:15.458Z,410.78
2018-12-30T10:36:15.455Z,411.83
2018-12-30T10:37:15.430Z,411.84
2018-12-30T10:38:15.453Z,410.11
2018-12-30T10:39:15.414Z,412.34
2018-12-30T10:40:15.401Z,410.69
2018-12-30T10:41:15.403Z,411.80
2018-12-30T10:42:15.376Z,411.15
2018-12-30T10:43:15.370Z,412.36
2018-12-30T10:44:15.357Z,413.03
2018-12-30T10:45:15.360Z,411.68
2018-12-30T10:46:15.386Z,412.05
2018-12-30T10:47:15.311Z,409.63
2018-12-30T10:48:15.307Z,411.20
2018-12-30T10:49:15.290Z,411.83
2018-12-30T10:50:15.282Z,410.55
2018-12-30T10:51:15.277Z,411.01
2018-12-30T10:52:15.284Z,409.64
2018-12-30T10:53:15.320Z,410.03
2018-12-30T10:54:15.249Z,410.00
2018-12-30T10:55:15.223Z,412.75
2018-12-30T10:56:15.220Z,411.89
2018-12-30T10:57:15.229Z,411.01
2018-12-30T10:58:15.210Z,411.85
2018-12-30T10:59:15.180Z,409.25
2018-12-30T11:00:15.174Z,410.86
2018-12-30T11:01:15.169Z,412.48
2018-12-30T11:02:15.207Z,411.15
2018-12-30T11:03:15.227Z,412.02
2018-12-30T11:04:15.137Z,412.27
2018-12-30T11:05:15.122Z,409.91
2018-12-30T11:06:15.119Z,410.73
2018-12-30T11:07:15.093Z,411.89
2018-12-30T11:08:15.099Z,412.13
2018-12-30T11:09:15.069Z,411.45
2018-12-30T11:10:15.065Z,410.82
2018-12-30T11:11:15.060Z,410.82
2018-12-30T11:12:15.067Z,411.78
2018-12-30T11:13:15.034Z,411.52
2018-12-30T11:14:15.016Z,410.49
2018-12-30T11:15:15.019Z,412.47
2018-12-30T11:16:15.000Z,410.07
2018-12-30T11:17:15.011Z,413.10
2018-12-30T11:18:14.985Z,411.16
2018-12-30T11:19:16.365Z,411.46
2018-12-30T11:20:14.949Z,411.11
2018-12-30T11:21:14.946Z,411.05
2018-12-30T11:22:14.951Z,411.11
2018-12-30T11:23:14.941Z,410.91
2018-12-30T11:24:14.916Z,414.70
2018-12-30T11:25:14.922Z,411.71
2018-12-30T11:26:14.902Z,409.42
2018-12-30T11:27:14.899Z,410.08
2018-12-30T11:28:14.884Z,410.45
2018-12-30T11:29:14.858Z,410.41
2018-12-30T11:30:14.862Z,409.71
2018-12-30T11:31:14.833Z,412.21
2018-12-30T11:32:14.827Z,411.60
2018-12-30T11:33:14.838Z,411.45
2018-12-30T11:34:14.794Z,411.73
2018-12-30T11:35:14.793Z,411.27
2018-12-30T11:36:14.802Z,410.67
2018-12-30T11:37:14.777Z,411.29
2018-12-30T11:38:14.759Z,412.19
2018-12-30T11:39:14.779Z,411.87
2018-12-30T11:40:14.730Z,411.64
2018-12-30T11:41:14.729Z,411.21
2018-12-30T11:42:14.726Z,410.42
2018-12-30T11:43:14.713Z,410.53
2018-12-30T11:44:14.711Z,410.92
2018-12-30T11:45:14.704Z,411.34
2018-12-30T11:46:14.668Z,410.13
2018-12-30T11:47:14.665Z,410.16
2018-12-30T11:48:14.649Z,410.22
2018-12-30T11:49:14.639Z,411.21
2018-12-30T11:50:14.646Z,411.17
2018-12-30T11:51:15.577Z,411.59
2018-12-30T11:52:14.596Z,410.51
2018-12-30T11:53:15.113Z,413.32
2018-12-30T11:54:16.498Z,412.02
2018-12-30T11:55:14.588Z,410.91
2018-12-30T11:56:14.574Z,411.12
2018-12-30T11:57:14.560Z,410.51
2018-12-30T11:58:14.539Z,410.13
2018-12-30T11:59:14.543Z,410.89
2018-12-30T12:00:14.547Z,412.05
2018-12-30T12:01:14.520Z,410.99
2018-12-30T12:02:14.502Z,411.06
2018-12-30T12:03:14.475Z,413.97
2018-12-30T12:04:14.470Z,411.01
2018-12-30T12:05:14.472Z,411.67
2018-12-30T12:06:14.451Z,411.83
2018-12-30T12:07:14.465Z,410.11
2018-12-30T12:08:14.441Z,411.43
2018-12-30T12:09:14.417Z,411.71
2018-12-30T12:10:14.422Z,411.83
2018-12-30T12:11:14.422Z,412.53
2018-12-30T12:12:14.382Z,410.91
2018-12-30T12:13:14.366Z,410.82
2018-12-30T12:14:14.355Z,411.57
2018-12-30T12:15:14.354Z,414.07
2018-12-30T12:16:14.343Z,411.88
2018-12-30T12:17:14.354Z,411.73
2018-12-30T12:18:14.308Z,410.97
2018-12-30T12:19:14.308Z,412.18
2018-12-30T12:20:14.300Z,410.67
2018-12-30T12:21:14.292Z,411.04
2018-12-30T12:22:14.296Z,411.54
2018-12-30T12:23:14.261Z,411.66
2018-12-30T12:24:14.256Z,412.53
2018-12-30T12:25:14.238Z,411.92
2018-12-30T12:26:14.230Z,411.57
2018-12-30T12:27:14.240Z,410.89
2018-12-30T12:28:14.235Z,411.03